Sangre de Cristo Ranches, Colorado
Current Conditions -  °F | °C
As of 2:52 PM on Wednesday 28 Jan 2015 (Local Time) from KALS Reporting Station
Clear Clear  
Wind Chill: 45°   Ceiling: Unl
Heat Index: 49°   Visibility: 10mi
Dew Point: 23°   Wind: 10mph
Humidity: 36%   Direction: 60°ENE
Pressure: 30.19"   Gusts: NA
Location:  37.4744°N, 105.319°W
Report Text: KALS 282152Z AUTO 06009KT 10SM CLR 09/M05 A3019 RMK AO2 SLP222 T00941050
Loading
Personal Weather Stations






























Interactive Weather Map New forecast layout! Learn more

10-Day Weather Forecast

Advertisements
Track Severe Weather on mobile